sensor_id;sensor_type;location;lat;lon;timestamp;P1;durP1;ratioP1;P2;durP2;ratioP2
2756;SDS011;1386;50.862;6.494;2023-03-01T08:29:02;15.60;;;13.57;;
2756;SDS011;1386;50.862;6.494;2023-03-01T08:31:39;17.60;;;13.18;;
2756;SDS011;1386;50.862;6.494;2023-03-01T08:34:07;16.10;;;12.70;;
2756;SDS011;1386;50.862;6.494;2023-03-01T08:36:46;20.65;;;13.23;;
2756;SDS011;1386;50.862;6.494;2023-03-01T08:39:13;16.80;;;13.05;;
2756;SDS011;1386;50.862;6.494;2023-03-01T08:41:44;15.85;;;12.60;;
2756;SDS011;1386;50.862;6.494;2023-03-01T08:44:14;17.95;;;14.10;;
2756;SDS011;1386;50.862;6.494;2023-03-01T08:46:42;15.63;;;13.40;;
2756;SDS011;1386;50.862;6.494;2023-03-01T08:49:18;17.92;;;12.57;;
2756;SDS011;1386;50.862;6.494;2023-03-01T08:51:46;18.35;;;13.13;;
2756;SDS011;1386;50.862;6.494;2023-03-01T08:54:14;24.58;;;12.88;;
2756;SDS011;1386;50.862;6.494;2023-03-01T08:56:45;16.30;;;12.80;;
2756;SDS011;1386;50.862;6.494;2023-03-01T08:59:14;14.25;;;10.95;;
2756;SDS011;1386;50.862;6.494;2023-03-01T09:01:42;16.95;;;12.75;;
2756;SDS011;1386;50.862;6.494;2023-03-01T09:04:09;16.87;;;12.50;;
2756;SDS011;1386;50.862;6.494;2023-03-01T09:06:43;18.90;;;13.10;;
2756;SDS011;1386;50.862;6.494;2023-03-01T09:09:13;15.97;;;12.70;;
2756;SDS011;1386;50.862;6.494;2023-03-01T09:11:42;24.43;;;13.67;;
2756;SDS011;1386;50.862;6.494;2023-03-01T09:14:19;17.50;;;13.03;;
2756;SDS011;1386;50.862;6.494;2023-03-01T09:16:48;18.63;;;13.40;;
2756;SDS011;1386;50.862;6.494;2023-03-01T09:22:41;18.27;;;13.30;;
2756;SDS011;1386;50.862;6.494;2023-03-01T09:28:24;15.27;;;12.70;;
2756;SDS011;1386;50.862;6.494;2023-03-01T09:30:59;18.57;;;13.83;;
2756;SDS011;1386;50.862;6.494;2023-03-01T09:33:31;15.10;;;12.30;;
2756;SDS011;1386;50.862;6.494;2023-03-01T09:36:03;19.53;;;12.67;;
2756;SDS011;1386;50.862;6.494;2023-03-01T09:38:34;15.17;;;12.40;;
2756;SDS011;1386;50.862;6.494;2023-03-01T09:41:08;18.93;;;12.20;;
2756;SDS011;1386;50.862;6.494;2023-03-01T09:46:44;18.97;;;13.20;;
2756;SDS011;1386;50.862;6.494;2023-03-01T09:49:14;28.33;;;14.17;;
2756;SDS011;1386;50.862;6.494;2023-03-01T09:51:50;15.67;;;12.60;;
2756;SDS011;1386;50.862;6.494;2023-03-01T09:54:25;21.10;;;12.57;;
2756;SDS011;1386;50.862;6.494;2023-03-01T09:56:56;19.90;;;14.03;;
2756;SDS011;1386;50.862;6.494;2023-03-01T09:59:36;16.13;;;13.03;;
2756;SDS011;1386;50.862;6.494;2023-03-01T10:02:46;16.13;;;13.60;;
2756;SDS011;1386;50.862;6.494;2023-03-01T10:08:43;16.50;;;13.83;;
2756;SDS011;1386;50.862;6.494;2023-03-01T10:11:31;13.77;;;12.40;;
2756;SDS011;1386;50.862;6.494;2023-03-01T10:14:15;16.30;;;12.77;;
2756;SDS011;1386;50.862;6.494;2023-03-01T10:16:54;19.00;;;13.60;;
2756;SDS011;1386;50.862;6.494;2023-03-01T10:19:29;15.23;;;12.40;;
2756;SDS011;1386;50.862;6.494;2023-03-01T10:22:00;19.13;;;13.07;;
2756;SDS011;1386;50.862;6.494;2023-03-01T10:24:31;17.50;;;14.37;;
2756;SDS011;1386;50.862;6.494;2023-03-01T10:27:01;14.53;;;12.30;;
2756;SDS011;1386;50.862;6.494;2023-03-01T10:29:46;18.97;;;14.00;;
2756;SDS011;1386;50.862;6.494;2023-03-01T10:32:18;19.27;;;13.63;;
2756;SDS011;1386;50.862;6.494;2023-03-01T10:34:52;19.20;;;14.10;;
2756;SDS011;1386;50.862;6.494;2023-03-01T10:37:20;16.10;;;13.17;;
2756;SDS011;1386;50.862;6.494;2023-03-01T10:39:56;17.97;;;14.37;;
2756;SDS011;1386;50.862;6.494;2023-03-01T10:42:28;17.87;;;14.03;;
2756;SDS011;1386;50.862;6.494;2023-03-01T10:45:14;14.33;;;11.90;;
2756;SDS011;1386;50.862;6.494;2023-03-01T10:48:03;19.73;;;12.90;;
2756;SDS011;1386;50.862;6.494;2023-03-01T10:51:11;14.80;;;12.03;;
2756;SDS011;1386;50.862;6.494;2023-03-01T10:53:48;20.53;;;12.63;;
2756;SDS011;1386;50.862;6.494;2023-03-01T10:56:22;19.50;;;13.37;;
2756;SDS011;1386;50.862;6.494;2023-03-01T10:58:58;16.00;;;12.00;;
2756;SDS011;1386;50.862;6.494;2023-03-01T11:01:33;15.63;;;12.27;;
2756;SDS011;1386;50.862;6.494;2023-03-01T11:04:08;15.87;;;12.60;;
2756;SDS011;1386;50.862;6.494;2023-03-01T11:06:42;13.97;;;12.43;;
2756;SDS011;1386;50.862;6.494;2023-03-01T11:09:13;18.33;;;13.50;;
2756;SDS011;1386;50.862;6.494;2023-03-01T11:11:53;21.27;;;12.83;;
2756;SDS011;1386;50.862;6.494;2023-03-01T11:14:21;14.17;;;12.67;;
2756;SDS011;1386;50.862;6.494;2023-03-01T11:17:02;17.50;;;13.90;;
2756;SDS011;1386;50.862;6.494;2023-03-01T11:19:31;15.73;;;12.13;;
2756;SDS011;1386;50.862;6.494;2023-03-01T11:22:01;16.30;;;12.00;;
2756;SDS011;1386;50.862;6.494;2023-03-01T11:24:34;18.33;;;12.37;;
2756;SDS011;1386;50.862;6.494;2023-03-01T11:27:11;17.33;;;13.63;;
2756;SDS011;1386;50.862;6.494;2023-03-01T11:29:44;18.30;;;12.43;;
2756;SDS011;1386;50.862;6.494;2023-03-01T11:32:24;18.03;;;12.57;;
2756;SDS011;1386;50.862;6.494;2023-03-01T11:34:54;14.30;;;11.20;;
2756;SDS011;1386;50.862;6.494;2023-03-01T11:37:37;15.57;;;12.67;;
2756;SDS011;1386;50.862;6.494;2023-03-01T11:40:13;16.07;;;12.60;;
2756;SDS011;1386;50.862;6.494;2023-03-01T11:42:50;18.10;;;13.97;;
2756;SDS011;1386;50.862;6.494;2023-03-01T11:45:25;17.30;;;12.60;;
2756;SDS011;1386;50.862;6.494;2023-03-01T11:50:55;13.53;;;11.50;;
2756;SDS011;1386;50.862;6.494;2023-03-01T11:53:33;15.73;;;12.40;;
2756;SDS011;1386;50.862;6.494;2023-03-01T11:56:16;14.33;;;12.83;;
2756;SDS011;1386;50.862;6.494;2023-03-01T11:58:57;15.93;;;12.00;;
2756;SDS011;1386;50.862;6.494;2023-03-01T12:01:39;16.60;;;12.07;;
2756;SDS011;1386;50.862;6.494;2023-03-01T12:07:03;15.63;;;12.43;;
2756;SDS011;1386;50.862;6.494;2023-03-01T12:09:44;15.50;;;11.30;;
2756;SDS011;1386;50.862;6.494;2023-03-01T12:12:25;15.73;;;11.27;;
2756;SDS011;1386;50.862;6.494;2023-03-01T12:18:09;11.67;;;10.17;;
2756;SDS011;1386;50.862;6.494;2023-03-01T12:20:45;19.03;;;12.33;;
2756;SDS011;1386;50.862;6.494;2023-03-01T12:23:31;15.17;;;11.50;;
2756;SDS011;1386;50.862;6.494;2023-03-01T12:26:18;13.43;;;10.70;;
2756;SDS011;1386;50.862;6.494;2023-03-01T12:31:57;17.10;;;11.40;;
2756;SDS011;1386;50.862;6.494;2023-03-01T12:34:44;13.60;;;11.80;;
2756;SDS011;1386;50.862;6.494;2023-03-01T12:37:45;16.73;;;12.20;;
2756;SDS011;1386;50.862;6.494;2023-03-01T12:40:23;12.80;;;10.70;;
2756;SDS011;1386;50.862;6.494;2023-03-01T12:43:06;16.80;;;12.10;;
2756;SDS011;1386;50.862;6.494;2023-03-01T12:45:44;12.80;;;10.37;;
2756;SDS011;1386;50.862;6.494;2023-03-01T12:51:07;14.70;;;10.80;;
2756;SDS011;1386;50.862;6.494;2023-03-01T12:53:39;16.40;;;12.50;;
2756;SDS011;1386;50.862;6.494;2023-03-01T12:56:08;19.13;;;11.83;;
2756;SDS011;1386;50.862;6.494;2023-03-01T12:58:41;15.00;;;10.97;;
2756;SDS011;1386;50.862;6.494;2023-03-01T13:01:20;16.33;;;11.50;;
2756;SDS011;1386;50.862;6.494;2023-03-01T13:18:51;14.97;;;10.80;;
2756;SDS011;1386;50.862;6.494;2023-03-01T13:21:34;13.57;;;9.63;;
2756;SDS011;1386;50.862;6.494;2023-03-01T13:24:01;14.80;;;10.60;;
2756;SDS011;1386;50.862;6.494;2023-03-01T13:26:27;12.00;;;9.23;;
2756;SDS011;1386;50.862;6.494;2023-03-01T13:28:55;12.20;;;10.13;;
2756;SDS011;1386;50.862;6.494;2023-03-01T13:34:50;10.60;;;9.33;;
2756;SDS011;1386;50.862;6.494;2023-03-01T13:43:32;17.63;;;11.00;;
2756;SDS011;1386;50.862;6.494;2023-03-01T13:46:02;17.27;;;11.10;;
2756;SDS011;1386;50.862;6.494;2023-03-01T13:48:38;20.57;;;10.37;;
2756;SDS011;1386;50.862;6.494;2023-03-01T13:51:20;15.07;;;10.90;;
2756;SDS011;1386;50.862;6.494;2023-03-01T13:54:09;13.93;;;9.87;;
2756;SDS011;1386;50.862;6.494;2023-03-01T13:56:38;12.93;;;10.00;;
2756;SDS011;1386;50.862;6.494;2023-03-01T13:59:13;13.90;;;10.13;;
2756;SDS011;1386;50.862;6.494;2023-03-01T14:01:41;14.10;;;10.40;;
2756;SDS011;1386;50.862;6.494;2023-03-01T14:04:25;15.03;;;10.63;;
2756;SDS011;1386;50.862;6.494;2023-03-01T14:07:09;19.23;;;11.10;;
2756;SDS011;1386;50.862;6.494;2023-03-01T14:09:42;13.90;;;11.17;;
2756;SDS011;1386;50.862;6.494;2023-03-01T14:12:14;19.70;;;11.00;;
2756;SDS011;1386;50.862;6.494;2023-03-01T14:14:54;14.43;;;11.93;;
2756;SDS011;1386;50.862;6.494;2023-03-01T14:17:41;16.50;;;10.83;;
2756;SDS011;1386;50.862;6.494;2023-03-01T14:20:26;13.40;;;11.00;;
2756;SDS011;1386;50.862;6.494;2023-03-01T14:22:57;14.00;;;11.10;;
2756;SDS011;1386;50.862;6.494;2023-03-01T14:25:35;12.80;;;11.10;;
2756;SDS011;1386;50.862;6.494;2023-03-01T14:28:05;16.83;;;11.33;;
2756;SDS011;1386;50.862;6.494;2023-03-01T14:33:21;14.93;;;10.60;;
2756;SDS011;1386;50.862;6.494;2023-03-01T14:36:00;15.57;;;10.70;;
2756;SDS011;1386;50.862;6.494;2023-03-01T14:38:31;14.50;;;11.37;;
2756;SDS011;1386;50.862;6.494;2023-03-01T14:41:08;15.43;;;11.23;;
2756;SDS011;1386;50.862;6.494;2023-03-01T14:43:36;14.57;;;10.50;;
2756;SDS011;1386;50.862;6.494;2023-03-01T14:46:16;13.73;;;9.83;;
2756;SDS011;1386;50.862;6.494;2023-03-01T14:48:45;15.53;;;10.80;;
2756;SDS011;1386;50.862;6.494;2023-03-01T14:51:14;13.37;;;10.63;;
2756;SDS011;1386;50.862;6.494;2023-03-01T14:53:42;12.10;;;10.30;;
2756;SDS011;1386;50.862;6.494;2023-03-01T14:56:12;14.30;;;10.10;;
2756;SDS011;1386;50.862;6.494;2023-03-01T14:58:42;15.40;;;10.63;;
2756;SDS011;1386;50.862;6.494;2023-03-01T15:01:10;15.93;;;9.67;;
2756;SDS011;1386;50.862;6.494;2023-03-01T15:03:50;14.00;;;8.93;;
2756;SDS011;1386;50.862;6.494;2023-03-01T15:06:18;17.57;;;10.80;;
2756;SDS011;1386;50.862;6.494;2023-03-01T15:08:48;14.67;;;10.50;;
2756;SDS011;1386;50.862;6.494;2023-03-01T15:11:19;11.77;;;9.10;;
2756;SDS011;1386;50.862;6.494;2023-03-01T15:13:52;14.30;;;9.17;;
2756;SDS011;1386;50.862;6.494;2023-03-01T15:16:21;11.97;;;8.83;;
2756;SDS011;1386;50.862;6.494;2023-03-01T15:19:07;11.73;;;8.97;;
2756;SDS011;1386;50.862;6.494;2023-03-01T15:21:34;14.50;;;9.73;;
2756;SDS011;1386;50.862;6.494;2023-03-01T15:24:05;12.80;;;9.13;;
2756;SDS011;1386;50.862;6.494;2023-03-01T15:26:44;10.77;;;8.50;;
2756;SDS011;1386;50.862;6.494;2023-03-01T15:29:25;12.90;;;8.93;;
2756;SDS011;1386;50.862;6.494;2023-03-01T15:31:56;12.17;;;9.37;;
2756;SDS011;1386;50.862;6.494;2023-03-01T15:34:27;17.73;;;10.37;;
2756;SDS011;1386;50.862;6.494;2023-03-01T15:36:58;13.03;;;8.80;;
2756;SDS011;1386;50.862;6.494;2023-03-01T15:39:38;13.70;;;8.93;;
2756;SDS011;1386;50.862;6.494;2023-03-01T15:42:09;12.33;;;9.10;;
2756;SDS011;1386;50.862;6.494;2023-03-01T15:44:40;12.40;;;8.60;;
2756;SDS011;1386;50.862;6.494;2023-03-01T15:47:23;12.53;;;8.80;;
2756;SDS011;1386;50.862;6.494;2023-03-01T15:50:00;14.60;;;9.13;;
2756;SDS011;1386;50.862;6.494;2023-03-01T15:52:28;11.20;;;8.67;;
2756;SDS011;1386;50.862;6.494;2023-03-01T15:55:04;20.33;;;10.27;;
2756;SDS011;1386;50.862;6.494;2023-03-01T15:57:40;13.63;;;8.93;;
2756;SDS011;1386;50.862;6.494;2023-03-01T16:00:10;13.47;;;9.03;;
2756;SDS011;1386;50.862;6.494;2023-03-01T16:02:38;11.27;;;8.97;;
2756;SDS011;1386;50.862;6.494;2023-03-01T16:05:09;12.90;;;8.90;;
2756;SDS011;1386;50.862;6.494;2023-03-01T16:07:48;10.07;;;8.67;;
2756;SDS011;1386;50.862;6.494;2023-03-01T16:10:26;16.17;;;8.70;;
2756;SDS011;1386;50.862;6.494;2023-03-01T16:12:53;11.17;;;9.03;;
2756;SDS011;1386;50.862;6.494;2023-03-01T16:15:31;32.27;;;16.60;;
2756;SDS011;1386;50.862;6.494;2023-03-01T16:18:15;16.20;;;11.80;;
2756;SDS011;1386;50.862;6.494;2023-03-01T16:20:56;28.10;;;14.90;;
2756;SDS011;1386;50.862;6.494;2023-03-01T16:23:48;24.60;;;13.30;;
2756;SDS011;1386;50.862;6.494;2023-03-01T16:29:53;18.00;;;9.07;;
2756;SDS011;1386;50.862;6.494;2023-03-01T16:32:37;18.07;;;10.00;;
2756;SDS011;1386;50.862;6.494;2023-03-01T16:35:12;14.73;;;9.80;;
2756;SDS011;1386;50.862;6.494;2023-03-01T16:38:03;12.73;;;8.90;;
2756;SDS011;1386;50.862;6.494;2023-03-01T16:40:41;14.47;;;9.20;;
2756;SDS011;1386;50.862;6.494;2023-03-01T16:43:54;16.27;;;9.80;;
2756;SDS011;1386;50.862;6.494;2023-03-01T17:23:56;12.33;;;8.73;;
2756;SDS011;1386;50.862;6.494;2023-03-01T17:26:24;15.37;;;7.80;;
2756;SDS011;1386;50.862;6.494;2023-03-01T17:28:59;14.60;;;8.93;;
2756;SDS011;1386;50.862;6.494;2023-03-01T17:31:27;14.17;;;8.77;;
2756;SDS011;1386;50.862;6.494;2023-03-01T17:34:03;12.50;;;8.40;;
2756;SDS011;1386;50.862;6.494;2023-03-01T17:36:30;13.43;;;8.53;;
2756;SDS011;1386;50.862;6.494;2023-03-01T17:39:10;11.90;;;7.40;;
2756;SDS011;1386;50.862;6.494;2023-03-01T17:41:36;13.23;;;8.80;;
2756;SDS011;1386;50.862;6.494;2023-03-01T17:44:03;9.40;;;7.20;;
2756;SDS011;1386;50.862;6.494;2023-03-01T17:46:30;11.10;;;9.17;;
2756;SDS011;1386;50.862;6.494;2023-03-01T17:48:57;8.93;;;7.27;;
2756;SDS011;1386;50.862;6.494;2023-03-01T17:51:24;13.27;;;7.00;;
2756;SDS011;1386;50.862;6.494;2023-03-01T17:53:51;11.53;;;7.10;;
2756;SDS011;1386;50.862;6.494;2023-03-01T17:56:22;13.57;;;8.67;;
2756;SDS011;1386;50.862;6.494;2023-03-01T17:58:56;10.57;;;7.77;;
2756;SDS011;1386;50.862;6.494;2023-03-01T18:01:23;13.33;;;7.27;;
2756;SDS011;1386;50.862;6.494;2023-03-01T18:03:50;10.60;;;7.33;;
2756;SDS011;1386;50.862;6.494;2023-03-01T18:06:17;16.03;;;9.30;;
2756;SDS011;1386;50.862;6.494;2023-03-01T18:08:46;12.67;;;9.00;;
2756;SDS011;1386;50.862;6.494;2023-03-01T18:11:15;13.60;;;8.40;;
2756;SDS011;1386;50.862;6.494;2023-03-01T18:13:44;12.87;;;8.07;;
2756;SDS011;1386;50.862;6.494;2023-03-01T18:16:13;11.17;;;7.83;;
2756;SDS011;1386;50.862;6.494;2023-03-01T18:18:51;15.63;;;7.70;;
2756;SDS011;1386;50.862;6.494;2023-03-01T18:21:18;10.77;;;7.17;;
2756;SDS011;1386;50.862;6.494;2023-03-01T18:23:52;10.93;;;7.97;;
2756;SDS011;1386;50.862;6.494;2023-03-01T18:26:23;13.20;;;8.90;;
2756;SDS011;1386;50.862;6.494;2023-03-01T18:28:56;15.60;;;7.63;;
2756;SDS011;1386;50.862;6.494;2023-03-01T18:31:25;13.90;;;7.73;;
2756;SDS011;1386;50.862;6.494;2023-03-01T18:33:52;8.97;;;8.03;;
2756;SDS011;1386;50.862;6.494;2023-03-01T18:36:21;18.53;;;8.80;;
2756;SDS011;1386;50.862;6.494;2023-03-01T18:38:51;12.30;;;7.73;;
2756;SDS011;1386;50.862;6.494;2023-03-01T18:41:20;19.90;;;8.07;;
2756;SDS011;1386;50.862;6.494;2023-03-01T18:43:48;12.83;;;8.20;;
2756;SDS011;1386;50.862;6.494;2023-03-01T18:46:16;17.23;;;8.70;;
2756;SDS011;1386;50.862;6.494;2023-03-01T18:48:53;12.07;;;8.00;;
2756;SDS011;1386;50.862;6.494;2023-03-01T18:51:21;15.93;;;7.73;;
2756;SDS011;1386;50.862;6.494;2023-03-01T18:53:53;10.60;;;8.37;;
2756;SDS011;1386;50.862;6.494;2023-03-01T18:56:20;9.90;;;7.83;;
2756;SDS011;1386;50.862;6.494;2023-03-01T18:58:47;15.03;;;8.37;;
2756;SDS011;1386;50.862;6.494;2023-03-01T19:01:14;18.13;;;9.27;;
2756;SDS011;1386;50.862;6.494;2023-03-01T19:03:44;14.97;;;8.07;;
2756;SDS011;1386;50.862;6.494;2023-03-01T19:06:12;17.10;;;7.90;;
2756;SDS011;1386;50.862;6.494;2023-03-01T19:08:42;12.53;;;7.47;;
2756;SDS011;1386;50.862;6.494;2023-03-01T19:11:10;9.83;;;8.13;;
2756;SDS011;1386;50.862;6.494;2023-03-01T19:13:38;18.07;;;7.23;;
2756;SDS011;1386;50.862;6.494;2023-03-01T19:16:09;10.07;;;8.00;;
2756;SDS011;1386;50.862;6.494;2023-03-01T19:18:39;11.90;;;7.43;;
2756;SDS011;1386;50.862;6.494;2023-03-01T19:21:08;11.93;;;8.40;;
2756;SDS011;1386;50.862;6.494;2023-03-01T19:23:36;8.60;;;7.67;;
2756;SDS011;1386;50.862;6.494;2023-03-01T19:26:07;8.97;;;7.50;;
2756;SDS011;1386;50.862;6.494;2023-03-01T19:28:36;12.27;;;7.67;;
2756;SDS011;1386;50.862;6.494;2023-03-01T19:31:04;12.00;;;8.70;;
2756;SDS011;1386;50.862;6.494;2023-03-01T19:33:32;10.70;;;7.40;;
2756;SDS011;1386;50.862;6.494;2023-03-01T19:36:01;10.90;;;8.30;;
2756;SDS011;1386;50.862;6.494;2023-03-01T19:38:29;13.47;;;8.30;;
2756;SDS011;1386;50.862;6.494;2023-03-01T19:40:56;8.37;;;7.27;;
2756;SDS011;1386;50.862;6.494;2023-03-01T19:43:23;13.00;;;8.67;;
2756;SDS011;1386;50.862;6.494;2023-03-01T19:45:50;12.13;;;8.00;;
2756;SDS011;1386;50.862;6.494;2023-03-01T19:48:18;10.13;;;8.50;;
2756;SDS011;1386;50.862;6.494;2023-03-01T19:50:45;12.50;;;8.33;;
2756;SDS011;1386;50.862;6.494;2023-03-01T19:53:14;12.07;;;8.43;;
2756;SDS011;1386;50.862;6.494;2023-03-01T19:55:41;9.70;;;7.53;;
2756;SDS011;1386;50.862;6.494;2023-03-01T19:58:08;9.17;;;8.27;;
2756;SDS011;1386;50.862;6.494;2023-03-01T20:00:35;13.37;;;8.60;;
2756;SDS011;1386;50.862;6.494;2023-03-01T20:03:02;11.57;;;8.43;;
2756;SDS011;1386;50.862;6.494;2023-03-01T20:05:31;12.37;;;8.47;;
2756;SDS011;1386;50.862;6.494;2023-03-01T20:07:58;12.57;;;8.00;;
2756;SDS011;1386;50.862;6.494;2023-03-01T20:10:30;12.80;;;7.53;;
2756;SDS011;1386;50.862;6.494;2023-03-01T20:12:57;12.33;;;8.37;;
2756;SDS011;1386;50.862;6.494;2023-03-01T20:15:35;13.33;;;8.57;;
2756;SDS011;1386;50.862;6.494;2023-03-01T20:18:02;13.07;;;9.00;;
2756;SDS011;1386;50.862;6.494;2023-03-01T20:20:34;12.13;;;7.80;;
2756;SDS011;1386;50.862;6.494;2023-03-01T20:23:01;9.93;;;7.73;;
2756;SDS011;1386;50.862;6.494;2023-03-01T20:25:30;12.00;;;8.60;;
2756;SDS011;1386;50.862;6.494;2023-03-01T20:27:57;13.10;;;7.97;;
2756;SDS011;1386;50.862;6.494;2023-03-01T20:35:53;11.10;;;8.40;;
2756;SDS011;1386;50.862;6.494;2023-03-01T20:38:20;8.00;;;7.20;;
2756;SDS011;1386;50.862;6.494;2023-03-01T20:40:48;11.87;;;7.77;;
2756;SDS011;1386;50.862;6.494;2023-03-01T20:43:15;12.13;;;8.50;;
2756;SDS011;1386;50.862;6.494;2023-03-01T20:45:42;11.57;;;9.17;;
2756;SDS011;1386;50.862;6.494;2023-03-01T20:48:09;13.07;;;9.10;;
2756;SDS011;1386;50.862;6.494;2023-03-01T20:50:38;10.20;;;7.07;;
2756;SDS011;1386;50.862;6.494;2023-03-01T20:53:05;14.70;;;7.87;;
2756;SDS011;1386;50.862;6.494;2023-03-01T20:55:32;14.10;;;8.73;;
2756;SDS011;1386;50.862;6.494;2023-03-01T20:58:09;8.47;;;7.23;;
2756;SDS011;1386;50.862;6.494;2023-03-01T21:00:36;13.10;;;8.07;;
2756;SDS011;1386;50.862;6.494;2023-03-01T21:03:03;15.80;;;8.93;;
2756;SDS011;1386;50.862;6.494;2023-03-01T21:05:39;14.50;;;9.17;;
2756;SDS011;1386;50.862;6.494;2023-03-01T21:08:06;18.03;;;7.87;;
2756;SDS011;1386;50.862;6.494;2023-03-01T21:10:32;11.90;;;8.30;;
2756;SDS011;1386;50.862;6.494;2023-03-01T21:12:59;13.33;;;8.50;;
2756;SDS011;1386;50.862;6.494;2023-03-01T21:15:28;9.20;;;8.10;;
2756;SDS011;1386;50.862;6.494;2023-03-01T21:17:54;13.00;;;9.23;;
2756;SDS011;1386;50.862;6.494;2023-03-01T21:20:21;15.80;;;8.40;;
2756;SDS011;1386;50.862;6.494;2023-03-01T21:22:48;12.13;;;8.10;;
2756;SDS011;1386;50.862;6.494;2023-03-01T21:25:15;11.57;;;7.97;;
2756;SDS011;1386;50.862;6.494;2023-03-01T21:27:48;11.47;;;8.80;;
2756;SDS011;1386;50.862;6.494;2023-03-01T21:30:15;17.20;;;8.27;;
2756;SDS011;1386;50.862;6.494;2023-03-01T21:32:43;9.50;;;8.00;;
2756;SDS011;1386;50.862;6.494;2023-03-01T21:35:20;13.30;;;9.60;;
2756;SDS011;1386;50.862;6.494;2023-03-01T21:37:47;12.70;;;8.00;;
2756;SDS011;1386;50.862;6.494;2023-03-01T21:40:14;12.27;;;8.50;;
2756;SDS011;1386;50.862;6.494;2023-03-01T21:42:41;11.07;;;8.10;;
2756;SDS011;1386;50.862;6.494;2023-03-01T21:45:13;13.60;;;8.40;;
2756;SDS011;1386;50.862;6.494;2023-03-01T21:47:40;18.30;;;8.07;;
2756;SDS011;1386;50.862;6.494;2023-03-01T21:50:09;15.97;;;8.57;;
2756;SDS011;1386;50.862;6.494;2023-03-01T21:52:38;11.13;;;7.87;;
2756;SDS011;1386;50.862;6.494;2023-03-01T21:55:05;15.20;;;8.80;;
2756;SDS011;1386;50.862;6.494;2023-03-01T21:57:33;21.53;;;9.77;;
2756;SDS011;1386;50.862;6.494;2023-03-01T22:00:08;13.33;;;8.30;;
2756;SDS011;1386;50.862;6.494;2023-03-01T22:02:39;13.80;;;10.10;;
2756;SDS011;1386;50.862;6.494;2023-03-01T22:05:08;21.10;;;9.30;;
2756;SDS011;1386;50.862;6.494;2023-03-01T22:07:35;16.77;;;8.90;;
2756;SDS011;1386;50.862;6.494;2023-03-01T22:10:04;13.73;;;8.87;;
2756;SDS011;1386;50.862;6.494;2023-03-01T22:12:32;13.00;;;8.40;;
2756;SDS011;1386;50.862;6.494;2023-03-01T22:14:59;14.60;;;8.90;;
2756;SDS011;1386;50.862;6.494;2023-03-01T22:17:26;18.13;;;9.17;;
2756;SDS011;1386;50.862;6.494;2023-03-01T22:19:52;11.50;;;8.20;;
2756;SDS011;1386;50.862;6.494;2023-03-01T22:22:21;15.80;;;8.60;;
2756;SDS011;1386;50.862;6.494;2023-03-01T22:24:47;10.83;;;8.80;;
2756;SDS011;1386;50.862;6.494;2023-03-01T22:27:14;17.80;;;9.07;;
2756;SDS011;1386;50.862;6.494;2023-03-01T22:29:44;14.83;;;9.40;;
2756;SDS011;1386;50.862;6.494;2023-03-01T22:32:11;18.60;;;9.43;;
2756;SDS011;1386;50.862;6.494;2023-03-01T22:34:37;12.47;;;8.20;;
2756;SDS011;1386;50.862;6.494;2023-03-01T22:37:04;20.90;;;8.73;;
2756;SDS011;1386;50.862;6.494;2023-03-01T22:39:32;11.47;;;8.13;;
2756;SDS011;1386;50.862;6.494;2023-03-01T22:42:05;10.87;;;8.43;;
2756;SDS011;1386;50.862;6.494;2023-03-01T22:44:33;14.30;;;9.23;;
2756;SDS011;1386;50.862;6.494;2023-03-01T22:47:00;13.53;;;9.03;;
2756;SDS011;1386;50.862;6.494;2023-03-01T22:49:33;17.20;;;8.93;;
2756;SDS011;1386;50.862;6.494;2023-03-01T22:52:00;10.97;;;8.43;;
2756;SDS011;1386;50.862;6.494;2023-03-01T22:54:27;14.83;;;9.27;;
2756;SDS011;1386;50.862;6.494;2023-03-01T22:56:55;12.67;;;8.57;;
2756;SDS011;1386;50.862;6.494;2023-03-01T22:59:28;10.57;;;8.83;;
2756;SDS011;1386;50.862;6.494;2023-03-01T23:01:55;13.03;;;8.80;;
2756;SDS011;1386;50.862;6.494;2023-03-01T23:04:22;14.50;;;10.20;;
2756;SDS011;1386;50.862;6.494;2023-03-01T23:06:49;13.00;;;9.17;;
2756;SDS011;1386;50.862;6.494;2023-03-01T23:09:21;11.30;;;9.63;;
2756;SDS011;1386;50.862;6.494;2023-03-01T23:11:50;12.20;;;8.30;;
2756;SDS011;1386;50.862;6.494;2023-03-01T23:14:19;19.73;;;9.70;;
2756;SDS011;1386;50.862;6.494;2023-03-01T23:16:49;11.80;;;8.87;;
2756;SDS011;1386;50.862;6.494;2023-03-01T23:19:16;10.87;;;9.37;;
2756;SDS011;1386;50.862;6.494;2023-03-01T23:21:43;13.07;;;8.85;;
2756;SDS011;1386;50.862;6.494;2023-03-01T23:24:14;9.77;;;8.73;;
2756;SDS011;1386;50.862;6.494;2023-03-01T23:26:42;14.30;;;10.20;;
2756;SDS011;1386;50.862;6.494;2023-03-01T23:29:10;14.90;;;8.80;;
2756;SDS011;1386;50.862;6.494;2023-03-01T23:31:38;12.00;;;9.20;;
2756;SDS011;1386;50.862;6.494;2023-03-01T23:34:05;12.60;;;9.10;;
2756;SDS011;1386;50.862;6.494;2023-03-01T23:36:32;10.80;;;8.43;;
2756;SDS011;1386;50.862;6.494;2023-03-01T23:39:00;13.10;;;8.70;;
2756;SDS011;1386;50.862;6.494;2023-03-01T23:41:33;14.20;;;9.18;;
2756;SDS011;1386;50.862;6.494;2023-03-01T23:44:00;16.50;;;8.93;;
2756;SDS011;1386;50.862;6.494;2023-03-01T23:46:29;10.70;;;9.60;;
2756;SDS011;1386;50.862;6.494;2023-03-01T23:48:58;17.13;;;8.97;;
2756;SDS011;1386;50.862;6.494;2023-03-01T23:51:25;15.75;;;9.82;;
2756;SDS011;1386;50.862;6.494;2023-03-01T23:53:53;10.23;;;8.20;;
2756;SDS011;1386;50.862;6.494;2023-03-01T23:56:25;15.43;;;9.40;;
2756;SDS011;1386;50.862;6.494;2023-03-01T23:58:53;10.90;;;8.65;;
